createdAt,value
2017-11-11T00:02:23.393Z,70.32
2017-11-11T00:04:49.696Z,69.84
2017-11-11T00:07:16.239Z,69.40
2017-11-11T00:09:43.309Z,69.39
2017-11-11T00:12:10.496Z,69.94
2017-11-11T00:14:37.113Z,68.45
2017-11-11T00:17:03.486Z,68.67
2017-11-11T00:19:30.577Z,68.31
2017-11-11T00:21:56.957Z,68.64
2017-11-11T00:24:23.320Z,69.47
2017-11-11T00:26:49.627Z,69.87
2017-11-11T00:29:16.236Z,69.44
2017-11-11T00:31:42.582Z,70.23
2017-11-11T00:34:08.911Z,69.87
2017-11-11T00:36:35.287Z,70.41
2017-11-11T00:39:02.339Z,70.88
2017-11-11T00:41:29.417Z,71.10
2017-11-11T00:43:56.088Z,71.14
2017-11-11T00:46:22.475Z,71.59
2017-11-11T00:48:48.885Z,71.75
2017-11-11T00:51:16.241Z,71.34
2017-11-11T00:53:42.620Z,70.86
2017-11-11T00:56:09.085Z,70.30
2017-11-11T00:58:35.518Z,71.00
2017-11-11T01:01:01.828Z,71.25
2017-11-11T01:03:28.146Z,71.06
2017-11-11T01:05:54.580Z,71.08
2017-11-11T01:08:20.988Z,70.74
2017-11-11T01:10:47.446Z,71.31
2017-11-11T01:13:13.822Z,71.47
2017-11-11T01:15:40.217Z,72.14
2017-11-11T01:33:04.773Z,72.94
2017-11-11T01:50:18.299Z,72.45
2017-11-11T01:55:44.744Z,72.09
2017-11-11T01:58:11.088Z,71.94
2017-11-11T02:00:38.361Z,71.59
2017-11-11T02:03:04.609Z,71.84
2017-11-11T02:05:30.914Z,72.19
2017-11-11T02:08:02.294Z,71.92
2017-11-11T02:10:29.504Z,71.64
2017-11-11T02:12:56.616Z,71.59
2017-11-11T02:15:23.010Z,71.65
2017-11-11T02:17:49.309Z,71.55
2017-11-11T02:20:21.287Z,71.77
2017-11-11T02:22:48.406Z,72.00
2017-11-11T02:25:36.858Z,71.38
2017-11-11T02:28:34.516Z,71.42
2017-11-11T02:31:17.352Z,71.37
2017-11-11T02:36:30.841Z,71.40
2017-11-11T02:38:57.177Z,70.87
2017-11-11T02:41:23.404Z,71.15
2017-11-11T02:43:49.700Z,71.20
2017-11-11T02:46:16.709Z,71.16
2017-11-11T02:48:42.970Z,70.84
2017-11-11T02:51:10.033Z,70.95
2017-11-11T02:53:37.099Z,70.23
2017-11-11T02:56:03.413Z,70.21
2017-11-11T02:58:30.476Z,70.05
2017-11-11T03:00:57.480Z,70.18
2017-11-11T03:03:24.559Z,70.48
2017-11-11T03:05:51.628Z,70.21
2017-11-11T03:08:17.975Z,70.03
2017-11-11T03:10:44.315Z,70.19
2017-11-11T03:13:10.650Z,70.22
2017-11-11T03:15:36.945Z,70.25
2017-11-11T03:18:03.225Z,70.16
2017-11-11T03:20:29.498Z,70.69
2017-11-11T03:22:56.497Z,70.42
2017-11-11T03:25:22.785Z,70.50
2017-11-11T03:27:49.924Z,70.40
2017-11-11T03:30:16.961Z,69.99
2017-11-11T03:32:43.965Z,69.63
2017-11-11T03:35:10.250Z,69.54
2017-11-11T03:37:36.561Z,69.71
2017-11-11T03:40:02.805Z,69.76
2017-11-11T03:42:29.806Z,69.18
2017-11-11T03:44:56.091Z,69.74
2017-11-11T03:47:23.082Z,69.47
2017-11-11T03:49:49.521Z,69.16
2017-11-11T03:52:15.805Z,69.06
2017-11-11T03:54:42.088Z,68.82
2017-11-11T03:57:08.431Z,68.68
2017-11-11T03:59:35.586Z,68.49
2017-11-11T04:02:01.887Z,68.32
2017-11-11T04:04:28.207Z,68.64
2017-11-11T04:06:55.310Z,68.47
2017-11-11T04:09:22.397Z,68.62
2017-11-11T04:11:48.715Z,68.75
2017-11-11T04:14:15.017Z,68.24
2017-11-11T04:16:42.098Z,68.08
2017-11-11T04:19:08.410Z,68.08
2017-11-11T04:21:34.679Z,68.32
2017-11-11T04:24:00.961Z,68.25
2017-11-11T04:26:28.203Z,68.21
2017-11-11T04:28:54.634Z,68.04
2017-11-11T04:31:20.928Z,67.92
2017-11-11T04:33:47.275Z,67.69
2017-11-11T04:36:13.646Z,66.97
2017-11-11T04:38:40.773Z,66.81
2017-11-11T04:41:07.084Z,66.96
2017-11-11T04:43:33.484Z,66.76
2017-11-11T04:45:59.799Z,66.55
2017-11-11T04:48:26.112Z,66.39
2017-11-11T04:50:53.206Z,66.56
2017-11-11T04:53:19.488Z,66.31
2017-11-11T04:55:45.779Z,65.54
2017-11-11T04:58:13.634Z,65.07
2017-11-11T05:00:40.031Z,64.82
2017-11-11T05:03:06.375Z,64.78
2017-11-11T05:05:32.727Z,65.16
2017-11-11T05:07:58.985Z,65.69
2017-11-11T05:10:25.259Z,65.57
2017-11-11T05:12:52.307Z,65.34
2017-11-11T05:15:19.424Z,66.18
2017-11-11T05:17:45.751Z,66.43
2017-11-11T05:20:12.069Z,66.51
2017-11-11T05:22:38.354Z,66.93
2017-11-11T05:25:04.674Z,66.91
2017-11-11T05:27:31.896Z,66.53
2017-11-11T05:29:58.325Z,66.48
2017-11-11T05:32:24.722Z,67.05
2017-11-11T05:34:51.092Z,67.37
2017-11-11T05:37:17.419Z,67.29
2017-11-11T05:39:43.724Z,67.58
2017-11-11T05:42:10.018Z,67.34
2017-11-11T05:44:37.066Z,67.09
2017-11-11T05:47:04.120Z,66.82
2017-11-11T05:49:30.407Z,66.68
2017-11-11T05:51:56.703Z,66.81
2017-11-11T05:54:23.027Z,66.77
2017-11-11T05:56:49.383Z,67.29
2017-11-11T05:59:15.726Z,67.41
2017-11-11T06:01:42.029Z,67.74
2017-11-11T06:04:08.379Z,67.48
2017-11-11T06:06:34.727Z,67.77
2017-11-11T06:09:01.075Z,68.97
2017-11-11T06:11:28.047Z,69.90
2017-11-11T06:13:54.434Z,70.18
2017-11-11T06:16:20.841Z,70.91
2017-11-11T06:18:47.473Z,71.55
2017-11-11T06:21:13.999Z,71.88
2017-11-11T06:23:40.404Z,71.46
2017-11-11T06:26:08.335Z,71.13
2017-11-11T06:28:35.708Z,71.28
2017-11-11T06:31:02.142Z,71.04
2017-11-11T06:33:29.351Z,70.42
2017-11-11T06:35:55.705Z,70.64
2017-11-11T06:38:22.062Z,71.12
2017-11-11T06:40:48.609Z,71.12
2017-11-11T06:43:15.744Z,70.83
2017-11-11T06:45:42.172Z,70.22
2017-11-11T06:48:08.682Z,69.81
2017-11-11T06:50:35.116Z,69.87
2017-11-11T06:53:01.526Z,69.33
2017-11-11T06:55:27.911Z,68.86
2017-11-11T06:57:54.323Z,69.05
2017-11-11T07:00:20.744Z,68.39
2017-11-11T07:02:47.133Z,68.24
2017-11-11T07:05:14.267Z,67.65
2017-11-11T07:07:40.767Z,67.17
2017-11-11T07:10:07.121Z,67.06
2017-11-11T07:12:33.540Z,66.52
2017-11-11T07:15:00.283Z,65.84
2017-11-11T07:17:26.621Z,66.09
2017-11-11T07:19:52.945Z,66.46
2017-11-11T07:22:19.326Z,66.53
2017-11-11T07:24:46.346Z,66.79
2017-11-11T07:27:13.560Z,66.44
2017-11-11T07:29:39.980Z,66.24
2017-11-11T07:32:06.360Z,66.18
2017-11-11T07:34:32.702Z,66.05
2017-11-11T07:36:59.020Z,65.82
2017-11-11T07:39:26.901Z,65.05
2017-11-11T07:41:53.996Z,64.12
2017-11-11T07:44:20.366Z,64.53
2017-11-11T07:46:46.754Z,63.90
2017-11-11T07:49:13.156Z,63.78
2017-11-11T07:51:40.321Z,63.53
2017-11-11T07:54:06.701Z,63.00
2017-11-11T07:56:33.112Z,63.14
2017-11-11T07:58:59.473Z,62.56
2017-11-11T08:01:25.894Z,62.31
2017-11-11T08:03:52.315Z,62.77
2017-11-11T08:06:18.773Z,63.24
2017-11-11T08:08:45.241Z,62.81
2017-11-11T08:11:11.658Z,63.93
2017-11-11T08:13:38.854Z,63.77
2017-11-11T08:16:05.203Z,62.96
2017-11-11T08:18:31.682Z,62.70
2017-11-11T08:20:58.827Z,61.15
2017-11-11T08:23:25.940Z,60.82
2017-11-11T08:25:52.530Z,59.52
2017-11-11T08:28:19.632Z,59.96
2017-11-11T08:30:46.018Z,59.73
2017-11-11T08:33:12.415Z,59.78
2017-11-11T08:35:38.822Z,59.79
2017-11-11T08:38:05.195Z,60.09
2017-11-11T08:40:31.576Z,60.28
2017-11-11T08:42:57.987Z,60.24
2017-11-11T08:45:24.929Z,60.22
2017-11-11T08:47:52.046Z,59.80
2017-11-11T08:50:18.366Z,59.38
2017-11-11T08:52:44.983Z,59.27
2017-11-11T08:55:11.354Z,58.94
2017-11-11T08:57:37.731Z,58.41
2017-11-11T09:00:04.132Z,57.96
2017-11-11T09:02:31.247Z,57.48
2017-11-11T09:04:57.629Z,57.56
2017-11-11T09:07:24.699Z,57.61
2017-11-11T09:09:51.140Z,58.74
2017-11-11T09:12:17.500Z,59.40
2017-11-11T09:14:43.917Z,59.44
2017-11-11T09:17:10.317Z,59.92
2017-11-11T09:19:36.741Z,60.59
2017-11-11T09:22:03.860Z,60.77
2017-11-11T09:24:30.375Z,62.37
2017-11-11T09:26:56.755Z,61.80
2017-11-11T09:29:23.823Z,61.16
2017-11-11T09:31:50.210Z,60.86
2017-11-11T09:34:16.557Z,60.50
2017-11-11T09:36:43.651Z,59.95
2017-11-11T09:39:10.104Z,59.01
2017-11-11T09:41:36.401Z,59.24
2017-11-11T09:44:02.755Z,58.36
2017-11-11T09:46:29.170Z,57.79
2017-11-11T09:48:55.635Z,57.04
2017-11-11T09:51:21.985Z,57.84
2017-11-11T09:53:48.993Z,56.83
2017-11-11T09:56:15.377Z,56.89
2017-11-11T09:58:41.778Z,57.78
2017-11-11T10:01:08.184Z,56.73
2017-11-11T10:03:34.545Z,56.48
2017-11-11T10:06:01.039Z,58.24
2017-11-11T10:08:27.342Z,59.81
2017-11-11T10:10:53.654Z,59.11
2017-11-11T10:13:19.998Z,59.14
2017-11-11T10:15:47.109Z,58.07
2017-11-11T10:18:13.638Z,57.20
2017-11-11T10:20:41.791Z,57.13
2017-11-11T10:23:08.199Z,55.68
2017-11-11T10:25:35.414Z,55.58
2017-11-11T10:28:01.781Z,55.30
2017-11-11T10:30:28.185Z,56.04
2017-11-11T10:32:54.535Z,57.60
2017-11-11T10:35:20.932Z,58.66
2017-11-11T10:37:47.305Z,61.80
2017-11-11T10:40:13.705Z,61.40
2017-11-11T10:42:40.227Z,63.10
2017-11-11T10:45:06.558Z,63.11
2017-11-11T10:47:32.999Z,63.34
2017-11-11T10:49:59.369Z,63.76
2017-11-11T10:52:25.709Z,63.76
2017-11-11T10:54:52.126Z,63.75
2017-11-11T10:57:18.516Z,64.98
2017-11-11T10:59:44.902Z,65.82
2017-11-11T11:02:11.994Z,65.88
2017-11-11T11:04:38.370Z,66.54
2017-11-11T11:07:04.766Z,66.34
2017-11-11T11:09:49.921Z,64.90
2017-11-11T11:12:17.075Z,66.34
2017-11-11T11:14:43.435Z,66.18
2017-11-11T11:17:09.781Z,66.63
2017-11-11T11:19:36.094Z,64.33
2017-11-11T11:22:02.448Z,64.82
2017-11-11T11:24:28.825Z,64.05
2017-11-11T11:26:55.274Z,63.32
2017-11-11T11:29:21.679Z,59.51
2017-11-11T11:31:48.815Z,59.69
2017-11-11T11:34:15.189Z,59.83
2017-11-11T11:36:41.549Z,58.61
2017-11-11T11:39:07.932Z,58.57
2017-11-11T11:41:35.102Z,59.94
2017-11-11T11:44:01.548Z,60.67
2017-11-11T11:46:27.893Z,59.75
2017-11-11T11:48:54.296Z,61.43
2017-11-11T11:51:20.750Z,60.73
2017-11-11T11:53:47.136Z,59.49
2017-11-11T11:56:14.256Z,59.62
2017-11-11T11:58:40.637Z,59.36
2017-11-11T12:01:07.913Z,59.33
2017-11-11T12:03:34.403Z,58.76
2017-11-11T12:06:01.557Z,58.43
2017-11-11T12:08:28.915Z,57.83
2017-11-11T12:10:56.274Z,57.67
2017-11-11T12:13:23.438Z,57.28
2017-11-11T12:15:51.136Z,56.99
2017-11-11T12:18:17.532Z,56.69
2017-11-11T12:20:43.856Z,56.33
2017-11-11T12:23:11.047Z,56.99
2017-11-11T12:25:37.526Z,56.90
2017-11-11T12:28:04.670Z,57.21
2017-11-11T12:30:31.754Z,56.51
2017-11-11T12:32:58.181Z,56.72
2017-11-11T12:35:24.542Z,56.56
2017-11-11T12:37:50.870Z,56.26
2017-11-11T12:40:17.218Z,55.99
2017-11-11T12:42:43.552Z,55.95
2017-11-11T12:45:09.946Z,55.45
2017-11-11T12:47:36.287Z,54.49
2017-11-11T12:50:02.857Z,53.62
2017-11-11T12:52:29.855Z,52.65
2017-11-11T12:54:56.230Z,50.61
2017-11-11T12:57:22.570Z,50.67
2017-11-11T12:59:48.976Z,47.82
2017-11-11T13:02:15.317Z,49.57
2017-11-11T13:04:41.645Z,50.32
2017-11-11T13:07:08.304Z,48.23
2017-11-11T13:09:34.704Z,48.95
2017-11-11T13:12:01.155Z,46.59
2017-11-11T13:14:27.552Z,43.94
2017-11-11T13:16:53.999Z,40.42
2017-11-11T13:19:20.513Z,37.59
2017-11-11T13:21:47.748Z,35.64
2017-11-11T13:24:14.164Z,37.01
2017-11-11T13:26:41.990Z,34.74
2017-11-11T13:29:08.425Z,36.47
2017-11-11T13:31:34.852Z,34.75
2017-11-11T13:34:01.238Z,37.05
2017-11-11T13:36:27.650Z,42.81
2017-11-11T13:38:54.026Z,47.37
2017-11-11T13:41:21.187Z,50.29
2017-11-11T13:43:47.661Z,51.84
2017-11-11T13:46:14.129Z,52.90
2017-11-11T13:48:40.485Z,53.77
2017-11-11T13:51:07.548Z,54.08
2017-11-11T13:53:33.966Z,54.89
2017-11-11T13:56:01.149Z,56.26
2017-11-11T13:58:27.490Z,56.74
2017-11-11T14:00:53.885Z,57.26
2017-11-11T14:03:20.994Z,57.49
2017-11-11T14:05:47.324Z,57.40
2017-11-11T14:08:13.758Z,57.38
2017-11-11T14:10:40.200Z,57.42
2017-11-11T14:13:06.574Z,56.76
2017-11-11T14:15:32.915Z,58.05
2017-11-11T14:17:59.297Z,57.23
2017-11-11T14:20:25.653Z,58.10
2017-11-11T14:22:52.744Z,59.26
2017-11-11T14:25:19.130Z,59.60
2017-11-11T14:27:46.218Z,60.07
2017-11-11T14:30:12.599Z,60.04
2017-11-11T14:32:39.717Z,59.58
2017-11-11T14:35:06.063Z,59.67
2017-11-11T14:37:32.413Z,59.42
2017-11-11T14:39:59.502Z,58.67
2017-11-11T14:42:25.904Z,59.14
2017-11-11T14:44:53.032Z,59.01
2017-11-11T14:47:19.434Z,58.67
2017-11-11T14:49:45.950Z,59.67
2017-11-11T14:52:12.356Z,59.08
2017-11-11T14:54:39.475Z,59.30
2017-11-11T14:57:05.816Z,59.64
2017-11-11T14:59:32.145Z,59.90
2017-11-11T15:01:58.468Z,59.61
2017-11-11T15:04:24.866Z,60.48
2017-11-11T15:06:51.242Z,60.15
2017-11-11T15:09:17.634Z,60.35
2017-11-11T15:11:44.048Z,60.47
2017-11-11T15:14:10.442Z,60.71
2017-11-11T15:16:36.799Z,60.97
2017-11-11T15:19:03.910Z,61.22
2017-11-11T15:21:30.552Z,61.63
2017-11-11T15:23:56.911Z,61.47
2017-11-11T15:26:24.469Z,61.75
2017-11-11T15:28:51.595Z,61.48
2017-11-11T15:31:18.054Z,61.88
2017-11-11T15:33:45.146Z,61.91
2017-11-11T15:36:11.584Z,61.23
2017-11-11T15:38:38.007Z,61.51
2017-11-11T15:41:04.394Z,61.78
2017-11-11T15:43:30.755Z,61.49
2017-11-11T15:45:57.061Z,61.31
2017-11-11T15:48:23.773Z,60.88
2017-11-11T15:50:50.109Z,60.82
2017-11-11T15:53:16.489Z,60.70
2017-11-11T15:55:42.911Z,60.95
2017-11-11T15:58:10.101Z,61.78
2017-11-11T16:00:36.487Z,62.20
2017-11-11T16:03:03.561Z,62.30
2017-11-11T16:05:30.005Z,62.62
2017-11-11T16:07:56.426Z,63.05
2017-11-11T16:10:22.809Z,62.50
2017-11-11T16:12:49.159Z,62.63
2017-11-11T16:15:16.377Z,62.45
2017-11-11T16:17:42.767Z,62.35
2017-11-11T16:20:09.301Z,62.95
2017-11-11T16:22:36.638Z,63.27
2017-11-11T16:25:03.752Z,63.12
2017-11-11T16:27:30.183Z,63.56
2017-11-11T16:29:56.549Z,63.76
2017-11-11T16:32:22.955Z,63.69
2017-11-11T16:34:49.470Z,64.76
2017-11-11T16:37:15.804Z,65.14
2017-11-11T16:39:42.205Z,65.55
2017-11-11T16:42:09.371Z,66.57
2017-11-11T16:44:35.745Z,66.77
2017-11-11T16:47:02.274Z,66.54
2017-11-11T16:49:28.815Z,66.54
2017-11-11T16:51:55.181Z,66.40
2017-11-11T16:54:22.401Z,66.38
2017-11-11T16:56:48.847Z,66.11
2017-11-11T16:59:15.329Z,65.69
2017-11-11T17:01:41.782Z,65.95
2017-11-11T17:04:08.087Z,66.10
2017-11-11T17:06:34.482Z,66.02
2017-11-11T17:09:00.809Z,66.74
2017-11-11T17:11:27.178Z,65.94
2017-11-11T17:13:54.307Z,65.96
2017-11-11T17:16:20.643Z,66.68
2017-11-11T17:18:47.772Z,66.50
2017-11-11T17:21:14.556Z,65.77
2017-11-11T17:23:40.871Z,66.19
2017-11-11T17:26:07.937Z,66.28
2017-11-11T17:28:34.269Z,66.49
2017-11-11T17:31:00.597Z,67.41
2017-11-11T17:33:26.880Z,67.50
2017-11-11T17:35:53.135Z,67.49
2017-11-11T17:38:20.408Z,68.03
2017-11-11T17:40:46.763Z,68.25
2017-11-11T17:43:13.103Z,68.42
2017-11-11T17:45:39.433Z,68.74
2017-11-11T17:48:05.753Z,68.75
2017-11-11T17:50:32.047Z,68.88
2017-11-11T17:52:59.135Z,68.72
2017-11-11T17:55:25.410Z,69.15
2017-11-11T17:57:51.695Z,69.18
2017-11-11T18:00:18.009Z,69.48
2017-11-11T18:02:44.422Z,69.06
2017-11-11T18:05:11.444Z,69.35
2017-11-11T18:07:37.857Z,69.06
2017-11-11T18:10:04.218Z,68.33
2017-11-11T18:12:30.499Z,68.72
2017-11-11T18:14:56.864Z,68.44
2017-11-11T18:17:23.122Z,68.06
2017-11-11T18:19:50.147Z,67.95
2017-11-11T18:22:16.469Z,68.98
2017-11-11T18:24:42.761Z,68.88
2017-11-11T18:27:09.122Z,68.92
2017-11-11T18:29:35.449Z,69.81
2017-11-11T18:32:01.871Z,70.08
2017-11-11T18:34:28.164Z,70.53
2017-11-11T18:36:54.464Z,70.94
2017-11-11T18:39:20.796Z,70.96
2017-11-11T18:41:47.145Z,70.94
2017-11-11T18:44:14.378Z,70.61
2017-11-11T18:46:40.761Z,70.85
2017-11-11T18:49:07.104Z,70.29
2017-11-11T18:51:33.411Z,69.85
2017-11-11T18:54:00.436Z,69.91
2017-11-11T18:56:26.692Z,69.64
2017-11-11T18:58:53.788Z,69.58
2017-11-11T19:01:20.192Z,69.40
2017-11-11T19:03:46.561Z,69.04
2017-11-11T19:06:12.856Z,69.06
2017-11-11T19:08:39.198Z,69.39
2017-11-11T19:11:05.851Z,69.36
2017-11-11T19:13:32.234Z,69.40
2017-11-11T19:15:59.385Z,69.43
2017-11-11T19:18:26.552Z,69.47
2017-11-11T19:20:52.880Z,69.83
2017-11-11T19:23:19.173Z,70.11
2017-11-11T19:25:46.321Z,70.59
2017-11-11T19:28:12.727Z,70.42
2017-11-11T19:30:39.040Z,70.06
2017-11-11T19:33:05.407Z,70.04
2017-11-11T19:35:31.821Z,70.29
2017-11-11T19:37:58.213Z,70.53
2017-11-11T19:40:25.305Z,69.82
2017-11-11T19:42:51.677Z,70.28
2017-11-11T19:45:18.719Z,69.78
2017-11-11T19:47:45.100Z,69.50
2017-11-11T19:50:11.392Z,69.27
2017-11-11T19:52:38.562Z,69.48
2017-11-11T19:55:04.855Z,69.08
2017-11-11T19:57:31.165Z,69.94
2017-11-11T19:59:57.499Z,69.74
2017-11-11T20:02:23.825Z,69.42
2017-11-11T20:04:50.445Z,69.26
2017-11-11T20:07:16.915Z,69.14
2017-11-11T20:09:43.389Z,69.34
2017-11-11T20:12:09.759Z,69.53
2017-11-11T20:14:36.190Z,68.61
2017-11-11T20:17:02.691Z,68.43
2017-11-11T20:19:29.024Z,68.63
2017-11-11T20:21:55.355Z,69.57
2017-11-11T20:24:21.759Z,69.31
2017-11-11T20:26:49.544Z,68.70
2017-11-11T20:29:16.622Z,69.06
2017-11-11T20:31:42.938Z,69.38
2017-11-11T20:34:09.265Z,69.44
2017-11-11T20:36:35.620Z,69.28
2017-11-11T20:39:02.050Z,69.54
2017-11-11T20:41:28.438Z,69.64
2017-11-11T20:43:55.531Z,70.56
2017-11-11T20:46:21.933Z,70.03
2017-11-11T20:48:48.975Z,69.16
2017-11-11T20:51:16.100Z,69.53
2017-11-11T20:53:42.419Z,69.77
2017-11-11T20:56:08.799Z,71.14
2017-11-11T20:58:35.943Z,71.12
2017-11-11T21:01:03.010Z,71.25
2017-11-11T21:03:29.529Z,70.96
2017-11-11T21:05:56.654Z,71.40
2017-11-11T21:08:23.044Z,71.64
2017-11-11T21:10:49.388Z,71.58
2017-11-11T21:13:15.706Z,70.72
2017-11-11T21:15:42.018Z,70.39
2017-11-11T21:18:08.393Z,71.11
2017-11-11T21:20:34.706Z,71.64
2017-11-11T21:23:01.052Z,71.37
2017-11-11T21:25:27.359Z,71.16
2017-11-11T21:27:53.663Z,71.11
2017-11-11T21:30:20.820Z,70.81
2017-11-11T21:32:47.142Z,70.48
2017-11-11T21:35:13.436Z,71.25
2017-11-11T21:37:39.944Z,71.04
2017-11-11T21:40:06.347Z,70.62
2017-11-11T21:42:32.837Z,70.49
2017-11-11T21:44:59.118Z,71.91
2017-11-11T21:47:25.457Z,71.35
2017-11-11T21:49:51.891Z,69.92
2017-11-11T21:52:18.203Z,69.83
2017-11-11T21:54:44.634Z,70.82
2017-11-11T21:57:11.693Z,70.72
2017-11-11T21:59:38.027Z,69.92
2017-11-11T22:02:04.316Z,69.79
2017-11-11T22:04:30.749Z,70.23
2017-11-11T22:06:57.209Z,70.20
2017-11-11T22:09:24.231Z,69.57
2017-11-11T22:11:50.554Z,70.00
2017-11-11T22:14:23.840Z,69.67
2017-11-11T22:16:50.157Z,69.79
2017-11-11T22:19:16.450Z,70.02
2017-11-11T22:21:42.783Z,70.63
2017-11-11T22:24:09.834Z,70.20
2017-11-11T22:26:36.132Z,68.73
2017-11-11T22:29:02.447Z,67.59
2017-11-11T22:31:28.802Z,67.98
2017-11-11T22:33:55.133Z,69.23
2017-11-11T22:36:22.233Z,69.29
2017-11-11T22:38:48.553Z,68.67
2017-11-11T22:41:14.838Z,68.63
2017-11-11T22:43:41.233Z,68.83
2017-11-11T22:46:07.571Z,68.35
2017-11-11T22:48:33.918Z,69.29
2017-11-11T22:51:00.243Z,69.80
2017-11-11T22:53:26.655Z,70.07
2017-11-11T22:55:52.928Z,70.05
2017-11-11T22:58:19.325Z,69.26
2017-11-11T23:00:45.733Z,69.19
2017-11-11T23:03:12.119Z,68.54
2017-11-11T23:05:38.451Z,68.66
2017-11-11T23:08:04.759Z,68.93
2017-11-11T23:10:31.030Z,70.40
2017-11-11T23:12:58.146Z,69.70
2017-11-11T23:15:24.464Z,70.69
2017-11-11T23:17:50.718Z,69.51
2017-11-11T23:20:17.062Z,69.22
2017-11-11T23:22:43.386Z,69.88
2017-11-11T23:25:09.702Z,70.64
2017-11-11T23:27:36.012Z,70.60
2017-11-11T23:30:02.291Z,70.07
2017-11-11T23:32:29.343Z,68.98
2017-11-11T23:34:56.402Z,68.98
2017-11-11T23:37:22.748Z,69.19
2017-11-11T23:39:49.128Z,70.21
2017-11-11T23:42:15.407Z,69.58
2017-11-11T23:44:41.730Z,69.87
2017-11-11T23:47:08.809Z,69.97
2017-11-11T23:49:35.111Z,69.06
2017-11-11T23:52:01.529Z,70.61
2017-11-11T23:54:28.572Z,70.85
2017-11-11T23:56:55.607Z,70.71
2017-11-11T23:59:21.996Z,71.65
